sensor_id;sensor_type;location;lat;lon;timestamp;temperature;humidity
67064;SHT30;58476;48.072;11.970;2023-03-23T00:00:47;22.68;50.47
67064;SHT30;58476;48.072;11.970;2023-03-23T00:03:13;22.65;50.46
67064;SHT30;58476;48.072;11.970;2023-03-23T00:05:39;22.65;50.46
67064;SHT30;58476;48.072;11.970;2023-03-23T00:08:04;22.63;50.33
67064;SHT30;58476;48.072;11.970;2023-03-23T00:10:29;22.63;50.40
67064;SHT30;58476;48.072;11.970;2023-03-23T00:12:55;22.64;50.32
67064;SHT30;58476;48.072;11.970;2023-03-23T00:15:20;22.61;50.46
67064;SHT30;58476;48.072;11.970;2023-03-23T00:17:45;22.61;50.28
67064;SHT30;58476;48.072;11.970;2023-03-23T00:20:11;22.58;50.27
67064;SHT30;58476;48.072;11.970;2023-03-23T00:22:36;22.58;50.33
67064;SHT30;58476;48.072;11.970;2023-03-23T00:25:01;22.57;50.38
67064;SHT30;58476;48.072;11.970;2023-03-23T00:27:27;22.55;50.35
67064;SHT30;58476;48.072;11.970;2023-03-23T00:29:52;22.51;50.41
67064;SHT30;58476;48.072;11.970;2023-03-23T00:32:19;22.53;50.49
67064;SHT30;58476;48.072;11.970;2023-03-23T00:34:45;22.47;50.52
67064;SHT30;58476;48.072;11.970;2023-03-23T00:37:10;22.46;50.52
67064;SHT30;58476;48.072;11.970;2023-03-23T00:39:37;22.44;50.51
67064;SHT30;58476;48.072;11.970;2023-03-23T00:42:04;22.43;50.50
67064;SHT30;58476;48.072;11.970;2023-03-23T00:44:32;22.40;50.65
67064;SHT30;58476;48.072;11.970;2023-03-23T00:46:58;22.37;50.53
67064;SHT30;58476;48.072;11.970;2023-03-23T00:49:24;22.37;50.68
67064;SHT30;58476;48.072;11.970;2023-03-23T00:51:51;22.34;50.64
67064;SHT30;58476;48.072;11.970;2023-03-23T00:54:17;22.34;50.69
67064;SHT30;58476;48.072;11.970;2023-03-23T00:56:42;22.34;50.57
67064;SHT30;58476;48.072;11.970;2023-03-23T00:59:07;22.34;50.65
67064;SHT30;58476;48.072;11.970;2023-03-23T01:01:34;22.30;50.68
67064;SHT30;58476;48.072;11.970;2023-03-23T01:04:00;22.29;50.61
67064;SHT30;58476;48.072;11.970;2023-03-23T01:06:27;22.29;50.59
67064;SHT30;58476;48.072;11.970;2023-03-23T01:08:53;22.24;50.73
67064;SHT30;58476;48.072;11.970;2023-03-23T01:11:19;22.23;50.72
67064;SHT30;58476;48.072;11.970;2023-03-23T01:13:44;22.21;50.60
67064;SHT30;58476;48.072;11.970;2023-03-23T01:16:11;22.23;50.63
67064;SHT30;58476;48.072;11.970;2023-03-23T01:18:38;22.20;50.80
67064;SHT30;58476;48.072;11.970;2023-03-23T01:21:05;22.20;50.65
67064;SHT30;58476;48.072;11.970;2023-03-23T01:23:32;22.17;50.65
67064;SHT30;58476;48.072;11.970;2023-03-23T01:26:02;22.17;50.58
67064;SHT30;58476;48.072;11.970;2023-03-23T01:28:28;22.17;50.66
67064;SHT30;58476;48.072;11.970;2023-03-23T01:31:02;22.14;50.75
67064;SHT30;58476;48.072;11.970;2023-03-23T01:33:28;22.14;50.71
67064;SHT30;58476;48.072;11.970;2023-03-23T01:35:53;22.12;50.67
67064;SHT30;58476;48.072;11.970;2023-03-23T01:38:19;22.14;50.71
67064;SHT30;58476;48.072;11.970;2023-03-23T01:40:44;22.10;50.79
67064;SHT30;58476;48.072;11.970;2023-03-23T01:43:14;22.13;50.70
67064;SHT30;58476;48.072;11.970;2023-03-23T01:45:42;22.09;50.67
67064;SHT30;58476;48.072;11.970;2023-03-23T01:48:12;22.10;50.69
67064;SHT30;58476;48.072;11.970;2023-03-23T01:51:14;22.06;50.80
67064;SHT30;58476;48.072;11.970;2023-03-23T01:53:48;22.06;50.80
67064;SHT30;58476;48.072;11.970;2023-03-23T01:56:16;22.07;50.70
67064;SHT30;58476;48.072;11.970;2023-03-23T01:58:43;22.06;50.82
67064;SHT30;58476;48.072;11.970;2023-03-23T02:01:12;22.07;50.74
67064;SHT30;58476;48.072;11.970;2023-03-23T02:03:41;22.07;50.67
67064;SHT30;58476;48.072;11.970;2023-03-23T02:06:08;22.09;50.59
67064;SHT30;58476;48.072;11.970;2023-03-23T02:08:52;22.13;50.56
67064;SHT30;58476;48.072;11.970;2023-03-23T02:11:20;22.14;50.40
67064;SHT30;58476;48.072;11.970;2023-03-23T02:13:47;22.16;50.41
67064;SHT30;58476;48.072;11.970;2023-03-23T02:16:31;22.13;49.93
67064;SHT30;58476;48.072;11.970;2023-03-23T02:22:13;22.20;49.77
67064;SHT30;58476;48.072;11.970;2023-03-23T02:30:09;22.21;49.67
67064;SHT30;58476;48.072;11.970;2023-03-23T02:35:13;22.21;49.38
67064;SHT30;58476;48.072;11.970;2023-03-23T02:37:59;22.20;49.46
67064;SHT30;58476;48.072;11.970;2023-03-23T02:40:35;22.20;49.61
67064;SHT30;58476;48.072;11.970;2023-03-23T02:43:03;22.23;49.52
67064;SHT30;58476;48.072;11.970;2023-03-23T02:45:33;22.20;49.39
67064;SHT30;58476;48.072;11.970;2023-03-23T02:48:00;22.21;49.26
67064;SHT30;58476;48.072;11.970;2023-03-23T02:50:27;22.23;49.35
67064;SHT30;58476;48.072;11.970;2023-03-23T02:52:55;22.23;49.20
67064;SHT30;58476;48.072;11.970;2023-03-23T02:55:22;22.21;49.24
67064;SHT30;58476;48.072;11.970;2023-03-23T02:57:50;22.21;49.24
67064;SHT30;58476;48.072;11.970;2023-03-23T03:00:17;22.20;49.20
67064;SHT30;58476;48.072;11.970;2023-03-23T03:02:44;22.17;49.31
67064;SHT30;58476;48.072;11.970;2023-03-23T03:05:38;22.16;49.25
67064;SHT30;58476;48.072;11.970;2023-03-23T03:08:26;22.18;49.46
67064;SHT30;58476;48.072;11.970;2023-03-23T03:10:55;22.13;49.37
67064;SHT30;58476;48.072;11.970;2023-03-23T03:13:49;22.12;49.25
67064;SHT30;58476;48.072;11.970;2023-03-23T03:21:36;22.07;49.35
67064;SHT30;58476;48.072;11.970;2023-03-23T03:24:04;22.03;49.48
67064;SHT30;58476;48.072;11.970;2023-03-23T03:26:31;22.02;49.35
67064;SHT30;58476;48.072;11.970;2023-03-23T03:29:15;22.00;49.27
67064;SHT30;58476;48.072;11.970;2023-03-23T03:31:45;21.99;49.49
67064;SHT30;58476;48.072;11.970;2023-03-23T03:34:13;21.97;49.43
67064;SHT30;58476;48.072;11.970;2023-03-23T03:36:39;21.96;49.38
67064;SHT30;58476;48.072;11.970;2023-03-23T03:39:09;21.93;49.38
67064;SHT30;58476;48.072;11.970;2023-03-23T03:41:36;21.93;49.34
67064;SHT30;58476;48.072;11.970;2023-03-23T03:44:06;21.93;49.46
67064;SHT30;58476;48.072;11.970;2023-03-23T03:46:32;21.89;49.38
67064;SHT30;58476;48.072;11.970;2023-03-23T03:48:58;21.90;49.45
67064;SHT30;58476;48.072;11.970;2023-03-23T03:51:25;21.89;49.41
67064;SHT30;58476;48.072;11.970;2023-03-23T03:53:52;21.89;49.41
67064;SHT30;58476;48.072;11.970;2023-03-23T03:56:17;21.88;49.44
67064;SHT30;58476;48.072;11.970;2023-03-23T03:58:50;21.83;49.37
67064;SHT30;58476;48.072;11.970;2023-03-23T04:01:39;21.85;49.39
67064;SHT30;58476;48.072;11.970;2023-03-23T04:04:05;21.83;49.48
67064;SHT30;58476;48.072;11.970;2023-03-23T04:06:34;21.82;49.35
67064;SHT30;58476;48.072;11.970;2023-03-23T04:08:59;21.82;49.36
67064;SHT30;58476;48.072;11.970;2023-03-23T04:11:25;21.81;49.39
67064;SHT30;58476;48.072;11.970;2023-03-23T04:13:51;21.78;49.37
67064;SHT30;58476;48.072;11.970;2023-03-23T04:16:21;21.78;49.40
67064;SHT30;58476;48.072;11.970;2023-03-23T04:18:48;21.76;49.44
67064;SHT30;58476;48.072;11.970;2023-03-23T04:21:15;21.75;49.42
67064;SHT30;58476;48.072;11.970;2023-03-23T04:23:42;21.74;49.53
67064;SHT30;58476;48.072;11.970;2023-03-23T04:26:07;21.75;49.38
67064;SHT30;58476;48.072;11.970;2023-03-23T04:28:39;21.74;49.35
67064;SHT30;58476;48.072;11.970;2023-03-23T04:31:31;21.72;49.32
67064;SHT30;58476;48.072;11.970;2023-03-23T04:34:06;21.72;49.44
67064;SHT30;58476;48.072;11.970;2023-03-23T04:36:37;21.69;49.36
67064;SHT30;58476;48.072;11.970;2023-03-23T04:39:10;21.69;49.29
67064;SHT30;58476;48.072;11.970;2023-03-23T04:41:37;21.72;49.22
67064;SHT30;58476;48.072;11.970;2023-03-23T04:44:12;21.74;49.02
67064;SHT30;58476;48.072;11.970;2023-03-23T04:46:43;21.74;48.91
67064;SHT30;58476;48.072;11.970;2023-03-23T04:49:10;21.76;49.04
67064;SHT30;58476;48.072;11.970;2023-03-23T04:51:39;21.76;48.95
67064;SHT30;58476;48.072;11.970;2023-03-23T04:54:30;21.79;48.92
67064;SHT30;58476;48.072;11.970;2023-03-23T04:57:01;21.79;48.84
67064;SHT30;58476;48.072;11.970;2023-03-23T04:59:27;21.79;48.86
67064;SHT30;58476;48.072;11.970;2023-03-23T05:02:05;21.82;48.79
67064;SHT30;58476;48.072;11.970;2023-03-23T05:04:31;21.85;48.78
67064;SHT30;58476;48.072;11.970;2023-03-23T05:07:03;21.92;49.35
67064;SHT30;58476;48.072;11.970;2023-03-23T05:09:31;21.95;49.36
67064;SHT30;58476;48.072;11.970;2023-03-23T05:11:57;21.97;49.34
67064;SHT30;58476;48.072;11.970;2023-03-23T05:14:22;21.96;49.93
67064;SHT30;58476;48.072;11.970;2023-03-23T05:16:59;21.97;49.12
67064;SHT30;58476;48.072;11.970;2023-03-23T05:19:25;22.00;49.25
67064;SHT30;58476;48.072;11.970;2023-03-23T05:21:52;22.02;49.07
67064;SHT30;58476;48.072;11.970;2023-03-23T05:24:18;22.05;49.29
67064;SHT30;58476;48.072;11.970;2023-03-23T05:26:44;22.05;49.10
67064;SHT30;58476;48.072;11.970;2023-03-23T05:29:16;22.09;49.04
67064;SHT30;58476;48.072;11.970;2023-03-23T05:31:52;22.05;49.14
67064;SHT30;58476;48.072;11.970;2023-03-23T05:34:19;22.06;49.51
67064;SHT30;58476;48.072;11.970;2023-03-23T05:36:48;22.09;49.64
67064;SHT30;58476;48.072;11.970;2023-03-23T05:39:37;22.10;49.16
67064;SHT30;58476;48.072;11.970;2023-03-23T05:42:35;22.12;49.02
67064;SHT30;58476;48.072;11.970;2023-03-23T05:45:24;22.09;48.88
67064;SHT30;58476;48.072;11.970;2023-03-23T05:47:51;22.09;49.16
67064;SHT30;58476;48.072;11.970;2023-03-23T05:50:19;22.10;48.97
67064;SHT30;58476;48.072;11.970;2023-03-23T05:52:44;22.10;49.20
67064;SHT30;58476;48.072;11.970;2023-03-23T05:55:12;22.06;49.24
67064;SHT30;58476;48.072;11.970;2023-03-23T05:57:39;22.07;49.21
67064;SHT30;58476;48.072;11.970;2023-03-23T06:00:25;22.10;49.28
67064;SHT30;58476;48.072;11.970;2023-03-23T06:03:00;22.09;49.47
67064;SHT30;58476;48.072;11.970;2023-03-23T06:05:42;22.12;49.62
67064;SHT30;58476;48.072;11.970;2023-03-23T06:08:07;22.13;50.01
67064;SHT30;58476;48.072;11.970;2023-03-23T06:10:32;22.12;49.61
67064;SHT30;58476;48.072;11.970;2023-03-23T06:13:01;22.09;50.07
67064;SHT30;58476;48.072;11.970;2023-03-23T06:15:26;22.06;50.27
67064;SHT30;58476;48.072;11.970;2023-03-23T06:18:15;21.99;50.54
67064;SHT30;58476;48.072;11.970;2023-03-23T06:21:16;21.96;50.22
67064;SHT30;58476;48.072;11.970;2023-03-23T06:24:02;21.92;50.00
67064;SHT30;58476;48.072;11.970;2023-03-23T06:26:34;21.86;50.28
67064;SHT30;58476;48.072;11.970;2023-03-23T06:29:04;21.83;50.27
67064;SHT30;58476;48.072;11.970;2023-03-23T06:31:33;21.81;50.12
67064;SHT30;58476;48.072;11.970;2023-03-23T06:33:59;21.79;49.92
67064;SHT30;58476;48.072;11.970;2023-03-23T06:36:24;21.78;49.97
67064;SHT30;58476;48.072;11.970;2023-03-23T06:38:58;21.76;50.04
67064;SHT30;58476;48.072;11.970;2023-03-23T06:41:33;21.72;49.65
67064;SHT30;58476;48.072;11.970;2023-03-23T06:43:59;21.74;50.04
67064;SHT30;58476;48.072;11.970;2023-03-23T06:46:28;21.71;50.16
67064;SHT30;58476;48.072;11.970;2023-03-23T06:49:15;21.72;50.15
67064;SHT30;58476;48.072;11.970;2023-03-23T06:51:48;21.68;50.03
67064;SHT30;58476;48.072;11.970;2023-03-23T06:54:13;21.66;49.97
67064;SHT30;58476;48.072;11.970;2023-03-23T06:56:40;21.65;50.18
67064;SHT30;58476;48.072;11.970;2023-03-23T06:59:07;21.65;50.08
67064;SHT30;58476;48.072;11.970;2023-03-23T07:05:01;21.62;50.09
67064;SHT30;58476;48.072;11.970;2023-03-23T07:07:27;21.61;49.98
67064;SHT30;58476;48.072;11.970;2023-03-23T07:10:13;21.62;49.98
67064;SHT30;58476;48.072;11.970;2023-03-23T07:12:38;21.62;49.95
67064;SHT30;58476;48.072;11.970;2023-03-23T07:15:06;21.59;49.96
67064;SHT30;58476;48.072;11.970;2023-03-23T07:17:31;21.62;49.96
67064;SHT30;58476;48.072;11.970;2023-03-23T07:20:05;21.59;49.96
67064;SHT30;58476;48.072;11.970;2023-03-23T07:22:31;21.63;49.75
67064;SHT30;58476;48.072;11.970;2023-03-23T07:25:05;21.68;49.86
67064;SHT30;58476;48.072;11.970;2023-03-23T07:27:41;21.66;50.05
67064;SHT30;58476;48.072;11.970;2023-03-23T07:30:07;21.69;49.89
67064;SHT30;58476;48.072;11.970;2023-03-23T07:32:33;21.72;49.67
67064;SHT30;58476;48.072;11.970;2023-03-23T07:34:58;21.71;49.46
67064;SHT30;58476;48.072;11.970;2023-03-23T07:37:36;21.71;49.51
67064;SHT30;58476;48.072;11.970;2023-03-23T07:40:03;21.74;49.58
67064;SHT30;58476;48.072;11.970;2023-03-23T07:42:29;21.78;49.33
67064;SHT30;58476;48.072;11.970;2023-03-23T07:44:58;21.79;49.17
67064;SHT30;58476;48.072;11.970;2023-03-23T07:47:23;21.82;49.13
67064;SHT30;58476;48.072;11.970;2023-03-23T07:49:48;21.82;49.22
67064;SHT30;58476;48.072;11.970;2023-03-23T07:52:21;21.85;49.09
67064;SHT30;58476;48.072;11.970;2023-03-23T07:54:46;21.85;49.07
67064;SHT30;58476;48.072;11.970;2023-03-23T07:57:38;21.86;48.99
67064;SHT30;58476;48.072;11.970;2023-03-23T08:00:05;21.89;49.21
67064;SHT30;58476;48.072;11.970;2023-03-23T08:02:41;21.88;49.31
67064;SHT30;58476;48.072;11.970;2023-03-23T08:05:26;21.90;49.15
67064;SHT30;58476;48.072;11.970;2023-03-23T08:08:09;21.92;49.02
67064;SHT30;58476;48.072;11.970;2023-03-23T08:10:55;21.95;48.85
67064;SHT30;58476;48.072;11.970;2023-03-23T08:13:41;21.95;48.84
67064;SHT30;58476;48.072;11.970;2023-03-23T08:16:27;21.97;48.86
67064;SHT30;58476;48.072;11.970;2023-03-23T08:19:11;21.95;49.01
67064;SHT30;58476;48.072;11.970;2023-03-23T08:21:54;21.96;49.12
67064;SHT30;58476;48.072;11.970;2023-03-23T08:24:34;21.93;49.30
67064;SHT30;58476;48.072;11.970;2023-03-23T08:27:08;21.93;49.18
67064;SHT30;58476;48.072;11.970;2023-03-23T08:29:44;21.93;49.31
67064;SHT30;58476;48.072;11.970;2023-03-23T08:32:30;21.93;49.53
67064;SHT30;58476;48.072;11.970;2023-03-23T08:35:27;21.93;49.48
67064;SHT30;58476;48.072;11.970;2023-03-23T08:38:29;21.90;49.54
67064;SHT30;58476;48.072;11.970;2023-03-23T08:41:24;21.92;49.55
67064;SHT30;58476;48.072;11.970;2023-03-23T08:43:49;21.92;49.56
67064;SHT30;58476;48.072;11.970;2023-03-23T08:46:31;21.90;49.53
67064;SHT30;58476;48.072;11.970;2023-03-23T08:49:09;21.93;49.58
67064;SHT30;58476;48.072;11.970;2023-03-23T08:52:13;21.93;49.43
67064;SHT30;58476;48.072;11.970;2023-03-23T08:55:03;21.92;49.77
67064;SHT30;58476;48.072;11.970;2023-03-23T08:57:46;21.90;49.67
67064;SHT30;58476;48.072;11.970;2023-03-23T09:00:27;21.92;49.60
67064;SHT30;58476;48.072;11.970;2023-03-23T09:03:11;21.89;49.89
67064;SHT30;58476;48.072;11.970;2023-03-23T09:05:53;21.86;49.92
67064;SHT30;58476;48.072;11.970;2023-03-23T09:08:22;21.88;49.99
67064;SHT30;58476;48.072;11.970;2023-03-23T09:10:48;21.89;49.94
67064;SHT30;58476;48.072;11.970;2023-03-23T09:13:13;21.86;49.86
67064;SHT30;58476;48.072;11.970;2023-03-23T09:15:38;21.86;49.82
67064;SHT30;58476;48.072;11.970;2023-03-23T09:18:04;21.83;50.21
67064;SHT30;58476;48.072;11.970;2023-03-23T09:20:29;21.83;50.30
67064;SHT30;58476;48.072;11.970;2023-03-23T09:22:56;21.83;49.93
67064;SHT30;58476;48.072;11.970;2023-03-23T09:25:23;21.82;49.94
67064;SHT30;58476;48.072;11.970;2023-03-23T09:27:51;21.82;50.16
67064;SHT30;58476;48.072;11.970;2023-03-23T09:30:16;21.79;50.16
67064;SHT30;58476;48.072;11.970;2023-03-23T09:32:42;21.81;50.19
67064;SHT30;58476;48.072;11.970;2023-03-23T09:35:08;21.82;50.13
67064;SHT30;58476;48.072;11.970;2023-03-23T09:37:34;21.81;49.94
67064;SHT30;58476;48.072;11.970;2023-03-23T09:39:59;21.81;50.08
67064;SHT30;58476;48.072;11.970;2023-03-23T09:42:57;21.81;50.27
67064;SHT30;58476;48.072;11.970;2023-03-23T09:45:28;21.78;50.02
67064;SHT30;58476;48.072;11.970;2023-03-23T09:51:08;21.78;50.05
67064;SHT30;58476;48.072;11.970;2023-03-23T09:53:39;21.79;49.99
67064;SHT30;58476;48.072;11.970;2023-03-23T09:56:11;21.81;50.35
67064;SHT30;58476;48.072;11.970;2023-03-23T09:58:44;21.81;50.31
67064;SHT30;58476;48.072;11.970;2023-03-23T10:01:22;21.83;50.14
67064;SHT30;58476;48.072;11.970;2023-03-23T10:03:54;21.86;50.04
67064;SHT30;58476;48.072;11.970;2023-03-23T10:06:21;21.90;49.98
67064;SHT30;58476;48.072;11.970;2023-03-23T10:08:50;21.93;49.92
67064;SHT30;58476;48.072;11.970;2023-03-23T10:16:56;22.00;49.78
67064;SHT30;58476;48.072;11.970;2023-03-23T10:19:32;22.03;49.73
67064;SHT30;58476;48.072;11.970;2023-03-23T10:22:10;22.07;49.56
67064;SHT30;58476;48.072;11.970;2023-03-23T10:24:42;22.09;49.42
67064;SHT30;58476;48.072;11.970;2023-03-23T10:27:38;22.09;49.43
67064;SHT30;58476;48.072;11.970;2023-03-23T10:32:47;22.17;49.39
67064;SHT30;58476;48.072;11.970;2023-03-23T10:35:18;22.14;49.34
67064;SHT30;58476;48.072;11.970;2023-03-23T10:37:48;22.16;49.38
67064;SHT30;58476;48.072;11.970;2023-03-23T10:40:26;22.17;49.36
67064;SHT30;58476;48.072;11.970;2023-03-23T10:42:52;22.20;49.28
67064;SHT30;58476;48.072;11.970;2023-03-23T10:45:26;22.20;49.17
67064;SHT30;58476;48.072;11.970;2023-03-23T10:47:56;22.21;49.14
67064;SHT30;58476;48.072;11.970;2023-03-23T10:50:26;22.24;49.18
67064;SHT30;58476;48.072;11.970;2023-03-23T10:52:52;22.26;49.13
67064;SHT30;58476;48.072;11.970;2023-03-23T10:55:20;22.26;49.16
67064;SHT30;58476;48.072;11.970;2023-03-23T10:57:58;22.26;49.33
67064;SHT30;58476;48.072;11.970;2023-03-23T11:00:24;22.27;49.24
67064;SHT30;58476;48.072;11.970;2023-03-23T11:03:02;22.27;49.15
67064;SHT30;58476;48.072;11.970;2023-03-23T11:08:54;22.32;49.00
67064;SHT30;58476;48.072;11.970;2023-03-23T11:11:28;22.27;48.79
67064;SHT30;58476;48.072;11.970;2023-03-23T11:13:59;22.29;48.93
67064;SHT30;58476;48.072;11.970;2023-03-23T11:16:30;22.24;48.95
67064;SHT30;58476;48.072;11.970;2023-03-23T11:19:00;22.21;49.18
67064;SHT30;58476;48.072;11.970;2023-03-23T11:21:36;22.21;49.26
67064;SHT30;58476;48.072;11.970;2023-03-23T11:24:01;22.21;49.34
67064;SHT30;58476;48.072;11.970;2023-03-23T11:26:28;22.17;49.39
67064;SHT30;58476;48.072;11.970;2023-03-23T11:29:14;22.16;49.48
67064;SHT30;58476;48.072;11.970;2023-03-23T11:31:44;22.16;49.52
67064;SHT30;58476;48.072;11.970;2023-03-23T11:34:15;22.14;49.59
67064;SHT30;58476;48.072;11.970;2023-03-23T11:36:43;22.13;49.62
67064;SHT30;58476;48.072;11.970;2023-03-23T11:41:50;22.12;49.60
67064;SHT30;58476;48.072;11.970;2023-03-23T11:44:15;22.13;49.56
67064;SHT30;58476;48.072;11.970;2023-03-23T11:46:57;22.14;49.52
67064;SHT30;58476;48.072;11.970;2023-03-23T11:49:39;22.14;49.46
67064;SHT30;58476;48.072;11.970;2023-03-23T11:52:15;22.14;49.22
67064;SHT30;58476;48.072;11.970;2023-03-23T11:54:55;22.17;49.07
67064;SHT30;58476;48.072;11.970;2023-03-23T11:57:23;22.20;49.25
67064;SHT30;58476;48.072;11.970;2023-03-23T11:59:51;22.20;48.95
67064;SHT30;58476;48.072;11.970;2023-03-23T12:05:22;22.21;48.53
67064;SHT30;58476;48.072;11.970;2023-03-23T12:15:51;22.24;48.58
67064;SHT30;58476;48.072;11.970;2023-03-23T12:24:11;22.30;48.69
67064;SHT30;58476;48.072;11.970;2023-03-23T12:35:05;22.44;47.99
67064;SHT30;58476;48.072;11.970;2023-03-23T12:40:35;22.50;48.48
67064;SHT30;58476;48.072;11.970;2023-03-23T12:49:26;22.54;48.56
67064;SHT30;58476;48.072;11.970;2023-03-23T12:52:15;22.58;48.73
67064;SHT30;58476;48.072;11.970;2023-03-23T12:54:49;22.55;48.71
67064;SHT30;58476;48.072;11.970;2023-03-23T12:57:34;22.57;48.76
67064;SHT30;58476;48.072;11.970;2023-03-23T13:00:17;22.60;48.77
67064;SHT30;58476;48.072;11.970;2023-03-23T13:05:34;22.61;48.63
67064;SHT30;58476;48.072;11.970;2023-03-23T13:08:09;22.67;48.49
67064;SHT30;58476;48.072;11.970;2023-03-23T13:10:42;22.71;48.65
67064;SHT30;58476;48.072;11.970;2023-03-23T13:13:19;22.69;48.70
67064;SHT30;58476;48.072;11.970;2023-03-23T13:16:07;22.69;48.56
67064;SHT30;58476;48.072;11.970;2023-03-23T13:18:40;22.72;48.77
67064;SHT30;58476;48.072;11.970;2023-03-23T13:23:58;22.71;48.48
67064;SHT30;58476;48.072;11.970;2023-03-23T13:26:25;22.71;48.27
67064;SHT30;58476;48.072;11.970;2023-03-23T13:31:30;22.65;48.64
67064;SHT30;58476;48.072;11.970;2023-03-23T13:37:05;22.64;48.41
67064;SHT30;58476;48.072;11.970;2023-03-23T13:39:33;22.63;48.46
67064;SHT30;58476;48.072;11.970;2023-03-23T13:42:19;22.60;48.41
67064;SHT30;58476;48.072;11.970;2023-03-23T13:49:51;22.60;48.43
67064;SHT30;58476;48.072;11.970;2023-03-23T13:52:36;22.58;48.53
67064;SHT30;58476;48.072;11.970;2023-03-23T14:00:47;22.54;48.98
67064;SHT30;58476;48.072;11.970;2023-03-23T14:03:25;22.53;48.79
67064;SHT30;58476;48.072;11.970;2023-03-23T14:10:58;22.51;48.91
67064;SHT30;58476;48.072;11.970;2023-03-23T14:13:46;22.47;49.04
67064;SHT30;58476;48.072;11.970;2023-03-23T14:16:21;22.51;48.86
67064;SHT30;58476;48.072;11.970;2023-03-23T14:18:55;22.48;48.73
67064;SHT30;58476;48.072;11.970;2023-03-23T14:21:39;22.50;48.61
67064;SHT30;58476;48.072;11.970;2023-03-23T14:24:15;22.48;48.80
67064;SHT30;58476;48.072;11.970;2023-03-23T14:26:41;22.46;48.39
67064;SHT30;58476;48.072;11.970;2023-03-23T14:29:06;22.48;47.94
67064;SHT30;58476;48.072;11.970;2023-03-23T14:31:32;22.47;47.95
67064;SHT30;58476;48.072;11.970;2023-03-23T14:34:03;22.47;47.56
67064;SHT30;58476;48.072;11.970;2023-03-23T14:36:30;22.50;47.51
67064;SHT30;58476;48.072;11.970;2023-03-23T14:39:04;22.48;47.50
67064;SHT30;58476;48.072;11.970;2023-03-23T14:41:31;22.50;47.32
67064;SHT30;58476;48.072;11.970;2023-03-23T14:43:59;22.51;47.32
67064;SHT30;58476;48.072;11.970;2023-03-23T14:46:25;22.48;46.68
67064;SHT30;58476;48.072;11.970;2023-03-23T14:48:50;22.50;47.08
67064;SHT30;58476;48.072;11.970;2023-03-23T14:51:20;22.50;46.84
67064;SHT30;58476;48.072;11.970;2023-03-23T14:53:45;22.50;46.98
67064;SHT30;58476;48.072;11.970;2023-03-23T14:56:16;22.53;46.56
67064;SHT30;58476;48.072;11.970;2023-03-23T14:58:46;22.48;46.58
67064;SHT30;58476;48.072;11.970;2023-03-23T15:01:18;22.46;46.86
67064;SHT30;58476;48.072;11.970;2023-03-23T15:04:00;22.50;46.86
67064;SHT30;58476;48.072;11.970;2023-03-23T15:06:30;22.51;46.36
67064;SHT30;58476;48.072;11.970;2023-03-23T15:08:58;22.51;46.51
67064;SHT30;58476;48.072;11.970;2023-03-23T15:11:30;22.50;46.29
67064;SHT30;58476;48.072;11.970;2023-03-23T15:13:58;22.50;46.53
67064;SHT30;58476;48.072;11.970;2023-03-23T15:16:32;22.47;45.17
67064;SHT30;58476;48.072;11.970;2023-03-23T15:19:15;22.39;41.07
67064;SHT30;58476;48.072;11.970;2023-03-23T15:24:25;22.20;41.47
67064;SHT30;58476;48.072;11.970;2023-03-23T15:26:50;22.18;42.15
67064;SHT30;58476;48.072;11.970;2023-03-23T15:29:17;22.26;43.01
67064;SHT30;58476;48.072;11.970;2023-03-23T15:31:46;22.21;43.58
67064;SHT30;58476;48.072;11.970;2023-03-23T15:34:17;22.27;43.81
67064;SHT30;58476;48.072;11.970;2023-03-23T15:36:42;22.29;44.28
67064;SHT30;58476;48.072;11.970;2023-03-23T15:39:11;22.30;44.60
67064;SHT30;58476;48.072;11.970;2023-03-23T15:41:45;22.32;45.33
67064;SHT30;58476;48.072;11.970;2023-03-23T15:44:18;22.30;45.31
67064;SHT30;58476;48.072;11.970;2023-03-23T15:46:50;22.29;45.37
67064;SHT30;58476;48.072;11.970;2023-03-23T15:49:16;22.26;45.51
67064;SHT30;58476;48.072;11.970;2023-03-23T15:51:41;22.26;45.58
67064;SHT30;58476;48.072;11.970;2023-03-23T15:54:12;22.30;44.39
67064;SHT30;58476;48.072;11.970;2023-03-23T15:56:38;22.30;45.08
67064;SHT30;58476;48.072;11.970;2023-03-23T15:59:03;22.32;45.41
67064;SHT30;58476;48.072;11.970;2023-03-23T16:01:29;22.32;45.73
67064;SHT30;58476;48.072;11.970;2023-03-23T16:04:02;22.29;46.16
67064;SHT30;58476;48.072;11.970;2023-03-23T16:06:32;22.30;46.05
67064;SHT30;58476;48.072;11.970;2023-03-23T16:08:57;22.32;46.40
67064;SHT30;58476;48.072;11.970;2023-03-23T16:11:25;22.30;46.57
67064;SHT30;58476;48.072;11.970;2023-03-23T16:13:50;22.27;46.63
67064;SHT30;58476;48.072;11.970;2023-03-23T16:16:47;22.27;46.62
67064;SHT30;58476;48.072;11.970;2023-03-23T16:19:14;22.29;46.90
67064;SHT30;58476;48.072;11.970;2023-03-23T16:21:40;22.32;47.10
67064;SHT30;58476;48.072;11.970;2023-03-23T16:24:07;22.30;47.07
67064;SHT30;58476;48.072;11.970;2023-03-23T16:26:33;22.27;47.26
67064;SHT30;58476;48.072;11.970;2023-03-23T16:28:58;22.29;47.42
67064;SHT30;58476;48.072;11.970;2023-03-23T16:31:24;22.29;47.34
67064;SHT30;58476;48.072;11.970;2023-03-23T16:33:49;22.26;47.51
67064;SHT30;58476;48.072;11.970;2023-03-23T16:36:14;22.23;47.56
67064;SHT30;58476;48.072;11.970;2023-03-23T16:38:40;22.21;47.76
67064;SHT30;58476;48.072;11.970;2023-03-23T16:41:06;22.21;47.84
67064;SHT30;58476;48.072;11.970;2023-03-23T16:43:31;22.23;47.82
67064;SHT30;58476;48.072;11.970;2023-03-23T16:45:56;22.24;48.03
67064;SHT30;58476;48.072;11.970;2023-03-23T16:48:23;22.21;48.19
67064;SHT30;58476;48.072;11.970;2023-03-23T16:50:50;22.24;48.32
67064;SHT30;58476;48.072;11.970;2023-03-23T16:53:16;22.20;48.17
67064;SHT30;58476;48.072;11.970;2023-03-23T16:55:41;22.23;48.28
67064;SHT30;58476;48.072;11.970;2023-03-23T16:58:07;22.24;48.31
67064;SHT30;58476;48.072;11.970;2023-03-23T17:00:32;22.24;48.45
67064;SHT30;58476;48.072;11.970;2023-03-23T17:02:58;22.27;48.39
67064;SHT30;58476;48.072;11.970;2023-03-23T17:05:26;22.32;48.30
67064;SHT30;58476;48.072;11.970;2023-03-23T17:07:53;22.34;48.31
67064;SHT30;58476;48.072;11.970;2023-03-23T17:10:18;22.34;48.29
67064;SHT30;58476;48.072;11.970;2023-03-23T17:12:44;22.34;48.31
67064;SHT30;58476;48.072;11.970;2023-03-23T17:15:10;22.37;48.33
67064;SHT30;58476;48.072;11.970;2023-03-23T17:17:36;22.40;48.26
67064;SHT30;58476;48.072;11.970;2023-03-23T17:20:01;22.41;48.38
67064;SHT30;58476;48.072;11.970;2023-03-23T17:22:27;22.41;48.40